Evelyn Hills, Arkansas
Current Conditions -  °F | °C
As of 7:01 PM on Sunday 23 Nov 2014 (Local Time) from KFYV Reporting Station
Thunderstorm Thunderstorm  
Wind Chill: 58°   Ceiling: Unl
Heat Index: 58°   Visibility: 7mi
Dew Point: 54°   Wind: 18mph
Humidity: 87%   Direction: 240°WSW
Pressure: 29.35"   Gusts: 26mph
Location:  35.9902°N, 94.083°W
Report Text: KFYV 240101Z 24016G23KT 7SM VCTS RA FEW032 SCT046 SCT070 14/12 A2935 RMK AO2 LTG DSNT SW RAB0057 P0002 T01440122
Loading
Personal Weather Stations






























Interactive Weather Map New forecast layout! Learn more

10-Day Weather Forecast

Advertisements
Track Severe Weather on mobile